Brize Norton, United Kingdom
Current Conditions -  °F | °C
As of 2:50 AM on Friday 28 Nov 2014 (Local Time) from EGVN Reporting Station
Haze Haze  
Wind Chill: 45°   Ceiling: 1000
Heat Index: 48°   Visibility: 2.5mi
Dew Point: 46°   Wind: 8mph
Humidity: 93%   Direction: 80°E
Pressure: 29.56"   Gusts: NA
Location:  51.77°N, 1.57°W
Report Text: EGVN 280250Z 08007KT 4000 BR OVC010 09/08 Q1001 NOSIG
Loading
Personal Weather Stations






























Interactive Weather Map New forecast layout! Learn more

10-Day Weather Forecast

Advertisements
Track Severe Weather on mobile